New Riegel, Ohio
Current Conditions -  °F | °C
As of 2:01 PM on Monday 20 Oct 2014 (Local Time) from KFDY Reporting Station
Moderate Rain Moderate Rain  
Wind Chill: 53°   Ceiling: 5500
Heat Index: 53°   Visibility: 2mi
Dew Point: 50°   Wind: 3mph
Humidity: 89%   Direction: NA
Pressure: 29.84"   Gusts: NA
Location:  41.05°N, 83.32°W
Report Text: KFDY 201801Z AUTO VRB03KT 2SM RA BR SCT019 BKN055 OVC070 12/10 A2984 RMK AO2 P0003 T01170100
Loading
Personal Weather Stations






























Interactive Weather Map
Tropical Storm Tracking
New forecast layout! Learn more

10-Day Weather Forecast

Advertisements
Track Severe Weather on mobile